»·PEaware :: UAL1705 KSFO-KPSP

UAL1705 :: KSFO-KPSP

FLIGHT INFORMATION

Flight Status: Arrived
Operator:
United Airlines
More flights by this operator :: More flights under this callsign
Pilot: Henderson P. (1210)
Aircraft: AIRBUS A319
(A319)
More flights by this aircraft type
Origin: KSFO San Francisco Intl
United States
Destination: KPSP Palm Springs Intl
United States
More flights between these airports :: More routes between these airports
Route: +SSTIK4 LOSHN CLASN SIZLR3
File this flight plan on PilotEdge
Remarks:
Altitude:
(Current/Filed)
39,000ft
Speed:
(Current/Filed)
455kts
Departed: 08-Oct-18 07:33 AM
Arrived: 08-Oct-18 08:36 AM
Distance/Time
Traveled:
365nm/1:02
Distance/Time
To Go:
Arrived

Flight Plot

Page will automatically refresh every two minutes.

Flight plan parsing failed; only flown route is shown


Map Options




Map Legend


Flown Route
Filed Route
Departure Airport
Arrival Airport
Navaid (VOR, NDB)
Fix

Horizontal Profiles

Position Reports

Time Latitude Longitude Heading Altitude Ground
Speed
08-Oct-18 07:07 37.620207 -122.389399 26 27ft 0kts
08-Oct-18 07:08 37.620207 -122.389399 26 27ft 0kts
08-Oct-18 07:09 37.620207 -122.389399 26 27ft 0kts
08-Oct-18 07:10 37.620207 -122.389399 26 27ft 0kts
08-Oct-18 07:11 37.620207 -122.389399 26 27ft 0kts
08-Oct-18 07:12 37.620207 -122.389399 26 27ft 0kts
08-Oct-18 07:13 37.620207 -122.389399 26 27ft 0kts
08-Oct-18 07:14 37.620207 -122.389399 26 27ft 0kts
08-Oct-18 07:15 37.620207 -122.389399 26 27ft 0kts
08-Oct-18 07:16 37.620207 -122.389399 26 27ft 0kts
08-Oct-18 07:17 37.620207 -122.389399 26 27ft 0kts
08-Oct-18 07:18 37.620207 -122.389399 26 27ft 0kts
08-Oct-18 07:19 37.620207 -122.389399 26 27ft 0kts
08-Oct-18 07:20 37.620207 -122.389399 26 27ft 0kts
08-Oct-18 07:21 37.619978 -122.389538 23 27ft 2kts
08-Oct-18 07:22 37.619376 -122.389669 312 27ft 2kts
08-Oct-18 07:23 37.619213 -122.389317 298 27ft 0kts
08-Oct-18 07:24 37.619213 -122.389318 298 27ft 0kts
08-Oct-18 07:25 37.619214 -122.389320 298 27ft 0kts
08-Oct-18 07:26 37.619519 -122.390044 298 27ft 9kts
08-Oct-18 07:27 37.620324 -122.391958 300 27ft 8kts
08-Oct-18 07:28 37.622646 -122.389432 79 27ft 14kts
08-Oct-18 07:29 37.620554 -122.384153 117 27ft 20kts
08-Oct-18 07:30 37.617366 -122.379446 181 27ft 15kts
08-Oct-18 07:31 37.613203 -122.381909 207 27ft 20kts
08-Oct-18 07:32 37.609321 -122.384748 202 27ft 7kts
08-Oct-18 07:33 37.608463 -122.383760 116 27ft 0kts
08-Oct-18 07:34 37.608253 -122.383240 117 27ft 12kts
08-Oct-18 07:35 37.627591 -122.369920 25 621ft 155kts
08-Oct-18 07:36 37.669946 -122.362683 6 3834ft 162kts
08-Oct-18 07:37 37.720386 -122.388817 296 6425ft 266kts
08-Oct-18 07:38 37.676236 -122.458459 180 10339ft 322kts
08-Oct-18 07:39 37.579966 -122.463168 187 13004ft 378kts
08-Oct-18 07:40 37.472175 -122.445367 138 14964ft 424kts
08-Oct-18 07:41 37.396100 -122.328018 123 17166ft 443kts
08-Oct-18 07:42 37.316184 -122.205601 124 18916ft 459kts
08-Oct-18 07:43 37.235591 -122.080743 124 18922ft 459kts
08-Oct-18 07:44 37.154747 -121.956602 124 19063ft 459kts
08-Oct-18 07:45 37.072718 -121.830935 124 21283ft 473kts
08-Oct-18 07:46 36.987869 -121.701414 125 23246ft 488kts
08-Oct-18 07:47 36.900333 -121.568405 125 24977ft 500kts
08-Oct-18 07:48 36.811134 -121.433328 125 26598ft 511kts
08-Oct-18 07:49 36.719518 -121.295227 126 28053ft 520kts
08-Oct-18 07:50 36.627243 -121.156850 126 29917ft 515kts
08-Oct-18 07:51 36.539442 -121.025410 126 31614ft 513kts
08-Oct-18 07:52 36.448519 -120.889836 125 33363ft 510kts
08-Oct-18 07:53 36.357995 -120.754167 125 34908ft 512kts
08-Oct-18 07:54 36.266735 -120.618344 125 36266ft 514kts
08-Oct-18 07:55 36.175148 -120.482376 125 37462ft 516kts
08-Oct-18 07:56 36.083038 -120.346102 124 38582ft 516kts
08-Oct-18 07:57 35.990935 -120.210582 124 38938ft 516kts
08-Oct-18 07:58 35.898596 -120.075123 125 38940ft 516kts
08-Oct-18 07:59 35.820287 -119.930831 107 38905ft 501kts
08-Oct-18 08:00 35.762957 -119.773903 108 38902ft 503kts
08-Oct-18 08:01 35.702280 -119.618578 116 38945ft 509kts
08-Oct-18 08:02 35.609610 -119.484221 125 38931ft 518kts
08-Oct-18 08:03 35.524651 -119.359940 124 38888ft 519kts
08-Oct-18 08:04 35.439078 -119.237838 124 38912ft 521kts
08-Oct-18 08:05 35.344872 -119.102431 124 38967ft 522kts
08-Oct-18 08:06 35.249952 -118.967188 124 38981ft 523kts
08-Oct-18 08:07 35.155238 -118.832515 124 39008ft 523kts
08-Oct-18 08:08 35.060188 -118.697874 124 38968ft 523kts
08-Oct-18 08:09 34.964974 -118.563706 124 37549ft 525kts
08-Oct-18 08:10 34.868954 -118.428782 124 34668ft 527kts
08-Oct-18 08:11 34.776573 -118.299466 125 31417ft 532kts
08-Oct-18 08:12 34.678466 -118.162672 126 27465ft 541kts
08-Oct-18 08:13 34.580671 -118.023807 119 23805ft 535kts
08-Oct-18 08:14 34.514525 -117.866193 109 22994ft 521kts
08-Oct-18 08:15 34.450959 -117.712766 110 21489ft 491kts
08-Oct-18 08:16 34.391370 -117.566012 110 17738ft 471kts
08-Oct-18 08:17 34.333381 -117.424754 111 16725ft 463kts
08-Oct-18 08:18 34.274766 -117.288600 114 16028ft 458kts
08-Oct-18 08:19 34.216388 -117.164328 115 16009ft 459kts
08-Oct-18 08:20 34.153530 -117.030451 115 16099ft 458kts
08-Oct-18 08:21 34.091027 -116.897737 114 15679ft 442kts
08-Oct-18 08:22 34.034075 -116.775906 116 13979ft 440kts
08-Oct-18 08:23 33.974150 -116.649412 116 12662ft 428kts
08-Oct-18 08:24 33.917239 -116.529375 117 11591ft 377kts
08-Oct-18 08:25 33.869788 -116.429475 115 10990ft 312kts
08-Oct-18 08:26 33.833629 -116.343956 113 10420ft 264kts
08-Oct-18 08:27 33.800293 -116.265431 113 8228ft 261kts
08-Oct-18 08:28 33.752696 -116.203478 158 6101ft 260kts
08-Oct-18 08:29 33.686112 -116.207385 212 5150ft 230kts
08-Oct-18 08:30 33.647610 -116.264713 258 4537ft 223kts
08-Oct-18 08:31 33.652785 -116.332717 298 3957ft 209kts
08-Oct-18 08:32 33.685692 -116.374998 324 3873ft 138kts
08-Oct-18 08:33 33.714140 -116.401107 323 3056ft 124kts
08-Oct-18 08:34 33.741352 -116.426267 323 2554ft 122kts
08-Oct-18 08:35 33.768210 -116.451040 325 1873ft 121kts
08-Oct-18 08:36 33.794549 -116.476135 320 1227ft 124kts
08-Oct-18 08:37 33.822055 -116.500896 323 526ft 123kts
08-Oct-18 08:38 33.832995 -116.511878 210 491ft 19kts
08-Oct-18 08:39 33.828687 -116.508894 136 491ft 20kts
08-Oct-18 08:40 33.825606 -116.506133 169 491ft 7kts
08-Oct-18 08:41 33.824000 -116.506482 189 491ft 2kts
08-Oct-18 08:42 33.823889 -116.506505 190 491ft 0kts
08-Oct-18 08:43 33.823889 -116.506505 190 491ft 0kts
08-Oct-18 08:44 33.823889 -116.506505 190 491ft 0kts
08-Oct-18 08:45 33.823889 -116.506505 190 491ft 0kts
08-Oct-18 08:46 33.823889 -116.506505 190 491ft 0kts
08-Oct-18 08:47 33.823889 -116.506505 190 491ft 0kts
08-Oct-18 08:48 33.823889 -116.506505 190 491ft 0kts
08-Oct-18 08:49 33.823889 -116.506505 190 491ft 0kts
08-Oct-18 08:50 33.823889 -116.506505 190 491ft 0kts
08-Oct-18 08:51 33.823889 -116.506505 190 491ft 0kts
08-Oct-18 08:52 33.823889 -116.506505 190 491ft 0kts

Navigation Log

Ident Type
Flight plan parsing failed, navigation log unavailable